Time;durP1;ratioP1;P1;durP2;ratioP2;P2;SDS_P1;SDS_P2;PMS_P1;PMS_P2;Temp;Humidity;BMP_temperature;BMP_pressure;BME280_temperature;BME280_humidity;BME280_pressure;Samples;Min_cycle;Max_cycle;Signal;HPM_P1;HPM_P2
2022/10/14 00:00:12;;;;;;;;;;;10.90;99.90;;;;;;5024618;28;19933;-66
2022/10/14 00:02:40;;;;;;;;;;;10.90;99.90;;;;;;5022350;28;19991;-65
2022/10/14 00:05:08;;;;;;;;;;;10.90;99.90;;;;;;5011461;28;19936;-69
2022/10/14 00:07:36;;;;;;;;;;;10.90;99.90;;;;;;5021078;28;19963;-64
2022/10/14 00:10:03;;;;;;;;;;;10.90;99.90;;;;;;5025144;28;19928;-65
2022/10/14 00:12:31;;;;;;;;;;;10.90;99.90;;;;;;5020117;28;19936;-65
2022/10/14 00:14:58;;;;;;;;;;;11.00;99.90;;;;;;5014633;28;19929;-65
2022/10/14 00:17:25;;;;;;;;;;;11.00;99.90;;;;;;5023404;28;19949;-67
2022/10/14 00:19:53;;;;;;;;;;;11.00;99.90;;;;;;5020104;28;19959;-67
2022/10/14 00:22:20;;;;;;;;;;;10.90;99.90;;;;;;5018829;28;19929;-66
2022/10/14 00:24:46;;;;;;;;;;;10.90;99.90;;;;;;5021531;28;20058;-66
2022/10/14 00:27:13;;;;;;;;;;;11.00;99.90;;;;;;5025623;28;20360;-65
2022/10/14 00:29:40;;;;;;;;;;;11.00;99.90;;;;;;5022748;28;20032;-64
2022/10/14 00:32:07;;;;;;;;;;;11.00;99.90;;;;;;5020146;28;19936;-68
2022/10/14 00:34:34;;;;;;;;;;;11.00;99.90;;;;;;5012229;28;20028;-65
2022/10/14 00:37:03;;;;;;;;;;;11.00;99.90;;;;;;5016535;28;20008;-65
2022/10/14 00:39:29;;;;;;;;;;;10.90;99.90;;;;;;5016909;28;19926;-65
2022/10/14 00:41:56;;;;;;;;;;;10.90;99.90;;;;;;5020975;28;20341;-65
2022/10/14 00:44:23;;;;;;;;;;;10.90;99.90;;;;;;5012889;28;19932;-65
2022/10/14 00:46:50;;;;;;;;;;;10.90;99.90;;;;;;5025344;28;19929;-70
2022/10/14 00:49:23;;;;;;;;;;;10.90;99.90;;;;;;5018465;28;19932;-65
2022/10/14 00:51:50;;;;;;;;;;;10.90;99.90;;;;;;5017161;28;20027;-65
2022/10/14 00:54:20;;;;;;;;;;;10.90;99.90;;;;;;5015867;28;20275;-64
2022/10/14 00:56:49;;;;;;;;;;;10.90;99.90;;;;;;5022408;28;19929;-66
2022/10/14 00:59:15;;;;;;;;;;;10.90;99.90;;;;;;5016973;28;20046;-65
2022/10/14 01:01:42;;;;;;;;;;;10.80;99.90;;;;;;5023678;28;20276;-66
2022/10/14 01:04:09;;;;;;;;;;;10.80;99.90;;;;;;5022426;28;20287;-64
2022/10/14 01:06:36;;;;;;;;;;;10.80;99.90;;;;;;5020978;28;19995;-64
2022/10/14 01:09:05;;;;;;;;;;;10.80;99.90;;;;;;5011087;28;20031;-65
2022/10/14 01:11:45;;;;;;;;;;;10.80;99.90;;;;;;5022004;28;20413;-66
2022/10/14 01:14:22;;;;;;;;;;;10.80;99.90;;;;;;5017883;28;19939;-65
2022/10/14 01:16:51;;;;;;;;;;;10.80;99.90;;;;;;5020430;28;19937;-67
2022/10/14 01:19:24;;;;;;;;;;;10.80;99.90;;;;;;5020302;28;19960;-67
2022/10/14 01:21:54;;;;;;;;;;;10.80;99.90;;;;;;5025522;28;19925;-68
2022/10/14 01:24:21;;;;;;;;;;;10.80;99.90;;;;;;5021385;28;20349;-67
2022/10/14 01:27:09;;;;;;;;;;;10.80;99.90;;;;;;5017115;28;19928;-66
2022/10/14 01:29:39;;;;;;;;;;;10.80;99.90;;;;;;5015183;28;19925;-65
2022/10/14 01:32:10;;;;;;;;;;;10.80;99.90;;;;;;5030809;28;20008;-64
2022/10/14 01:34:41;;;;;;;;;;;10.80;99.90;;;;;;5020204;28;19940;-65
2022/10/14 01:37:12;;;;;;;;;;;10.80;99.90;;;;;;5019561;28;20025;-65
2022/10/14 01:39:54;;;;;;;;;;;10.80;99.90;;;;;;5015647;28;19995;-65
2022/10/14 01:42:24;;;;;;;;;;;10.70;99.90;;;;;;5038826;28;20411;-65
2022/10/14 01:44:53;;;;;;;;;;;10.70;99.90;;;;;;5015137;28;20036;-66
2022/10/14 01:47:22;;;;;;;;;;;10.60;99.90;;;;;;5005970;28;19933;-65
2022/10/14 01:49:58;;;;;;;;;;;10.70;99.90;;;;;;5034333;28;20020;-66
2022/10/14 01:52:29;;;;;;;;;;;10.60;99.90;;;;;;5020526;28;19929;-64
2022/10/14 01:54:59;;;;;;;;;;;10.60;99.90;;;;;;5038170;28;19972;-66
2022/10/14 01:57:28;;;;;;;;;;;10.60;99.90;;;;;;5018207;28;20000;-68
2022/10/14 01:59:56;;;;;;;;;;;10.50;99.90;;;;;;5023052;28;19925;-67
2022/10/14 02:02:23;;;;;;;;;;;10.50;99.90;;;;;;5029128;28;19987;-66
2022/10/14 02:04:50;;;;;;;;;;;10.50;99.90;;;;;;5014638;28;20270;-66
2022/10/14 02:07:24;;;;;;;;;;;10.40;99.90;;;;;;5024144;28;20044;-67
2022/10/14 02:09:54;;;;;;;;;;;10.40;99.90;;;;;;5019336;28;19928;-65
2022/10/14 02:12:26;;;;;;;;;;;10.30;99.90;;;;;;5024827;28;20386;-63
2022/10/14 02:15:01;;;;;;;;;;;10.30;99.90;;;;;;5033422;28;20336;-64
2022/10/14 02:17:34;;;;;;;;;;;10.30;99.90;;;;;;5024872;28;19968;-69
2022/10/14 02:20:20;;;;;;;;;;;10.20;99.90;;;;;;5023136;28;20023;-64
2022/10/14 02:22:53;;;;;;;;;;;10.20;99.90;;;;;;5028058;28;20685;-67
2022/10/14 02:25:23;;;;;;;;;;;10.20;99.90;;;;;;5016277;28;20418;-65
2022/10/14 02:27:51;;;;;;;;;;;10.10;99.90;;;;;;5024666;28;20550;-67
2022/10/14 02:30:19;;;;;;;;;;;10.10;99.90;;;;;;5026439;28;19938;-65
2022/10/14 02:32:55;;;;;;;;;;;10.10;99.90;;;;;;5038628;28;19936;-66
2022/10/14 02:35:22;;;;;;;;;;;10.10;99.90;;;;;;5021016;28;20401;-66
2022/10/14 02:37:50;;;;;;;;;;;10.00;99.90;;;;;;5035974;28;19929;-64
2022/10/14 02:40:20;;;;;;;;;;;10.00;99.90;;;;;;5012586;28;21692;-65
2022/10/14 02:42:47;;;;;;;;;;;10.00;99.90;;;;;;5027950;28;19999;-66
2022/10/14 02:45:14;;;;;;;;;;;10.00;99.90;;;;;;5023481;28;19933;-65
2022/10/14 02:47:44;;;;;;;;;;;10.00;99.90;;;;;;5026804;28;20025;-63
2022/10/14 02:50:12;;;;;;;;;;;10.00;99.90;;;;;;5028635;28;19991;-64
2022/10/14 02:52:39;;;;;;;;;;;10.00;99.90;;;;;;5021162;28;20094;-63
2022/10/14 02:55:06;;;;;;;;;;;9.90;99.90;;;;;;5027039;28;20293;-65
2022/10/14 02:57:33;;;;;;;;;;;9.90;99.90;;;;;;5013618;28;19934;-64
2022/10/14 03:00:00;;;;;;;;;;;9.90;99.90;;;;;;5022950;28;19937;-64
2022/10/14 03:02:27;;;;;;;;;;;9.80;99.90;;;;;;5012898;28;19929;-64
2022/10/14 03:04:57;;;;;;;;;;;9.80;99.90;;;;;;5027531;28;19972;-64
2022/10/14 03:07:24;;;;;;;;;;;9.80;99.90;;;;;;5020292;28;19931;-63
2022/10/14 03:09:52;;;;;;;;;;;9.70;99.90;;;;;;5013401;28;19929;-65
2022/10/14 03:12:20;;;;;;;;;;;9.70;99.90;;;;;;5017448;28;19945;-64
2022/10/14 03:14:48;;;;;;;;;;;9.70;99.90;;;;;;5015923;28;19925;-64
2022/10/14 03:17:17;;;;;;;;;;;9.70;99.90;;;;;;5012299;28;19968;-65
2022/10/14 03:19:44;;;;;;;;;;;9.70;99.90;;;;;;4999330;28;20291;-65
2022/10/14 03:22:13;;;;;;;;;;;9.70;99.90;;;;;;5021761;28;19961;-64
2022/10/14 03:24:40;;;;;;;;;;;9.70;99.90;;;;;;5019454;28;19991;-64
2022/10/14 03:27:30;;;;;;;;;;;9.70;99.90;;;;;;5025704;28;19947;-63
2022/10/14 03:30:02;;;;;;;;;;;9.60;99.90;;;;;;5017472;28;19957;-63
2022/10/14 03:32:30;;;;;;;;;;;9.60;99.90;;;;;;5030041;28;20020;-63
2022/10/14 03:35:23;;;;;;;;;;;9.60;99.90;;;;;;5017395;28;19929;-64
2022/10/14 03:37:53;;;;;;;;;;;9.60;99.90;;;;;;5030860;28;19929;-66
2022/10/14 03:40:26;;;;;;;;;;;9.60;99.90;;;;;;5020497;28;19936;-69
2022/10/14 03:42:56;;;;;;;;;;;9.60;99.90;;;;;;5032019;28;19964;-66
2022/10/14 03:45:27;;;;;;;;;;;9.60;99.90;;;;;;5026354;28;19929;-65
2022/10/14 03:47:55;;;;;;;;;;;9.70;99.90;;;;;;5012042;28;20361;-64
2022/10/14 03:50:22;;;;;;;;;;;9.60;99.90;;;;;;5013140;28;19926;-64
2022/10/14 03:52:52;;;;;;;;;;;9.60;99.90;;;;;;5025823;28;19982;-66
2022/10/14 03:55:33;;;;;;;;;;;9.60;99.90;;;;;;5024665;28;20749;-68
2022/10/14 03:58:01;;;;;;;;;;;9.60;99.90;;;;;;5027062;28;19955;-64
2022/10/14 04:00:29;;;;;;;;;;;9.70;99.90;;;;;;5025139;28;20102;-66
2022/10/14 04:03:12;;;;;;;;;;;9.70;99.90;;;;;;5013666;28;19936;-64
2022/10/14 04:05:41;;;;;;;;;;;9.70;99.90;;;;;;5022354;28;19929;-65
2022/10/14 04:08:15;;;;;;;;;;;9.70;99.90;;;;;;5017289;28;19936;-65
2022/10/14 04:10:52;;;;;;;;;;;9.70;99.90;;;;;;5040394;28;20707;-65
2022/10/14 04:13:20;;;;;;;;;;;9.70;99.90;;;;;;5022092;28;19925;-65
2022/10/14 04:15:47;;;;;;;;;;;9.70;99.90;;;;;;5025454;28;19940;-66
2022/10/14 04:18:28;;;;;;;;;;;9.70;99.90;;;;;;5035258;28;19936;-64
2022/10/14 04:21:01;;;;;;;;;;;9.70;99.90;;;;;;5010753;28;19933;-64
2022/10/14 04:23:29;;;;;;;;;;;9.80;99.90;;;;;;5020096;28;19991;-63
2022/10/14 04:26:03;;;;;;;;;;;9.80;99.90;;;;;;5026805;28;20148;-67
2022/10/14 04:28:30;;;;;;;;;;;9.70;99.90;;;;;;5028163;28;19943;-64
2022/10/14 04:31:03;;;;;;;;;;;9.70;99.90;;;;;;5013150;28;19941;-67
2022/10/14 04:33:40;;;;;;;;;;;9.70;99.90;;;;;;5026865;28;19956;-63
2022/10/14 04:36:15;;;;;;;;;;;9.80;99.90;;;;;;5019774;28;19925;-64
2022/10/14 04:38:42;;;;;;;;;;;9.80;99.90;;;;;;5022779;28;19925;-63
2022/10/14 04:41:10;;;;;;;;;;;9.80;99.90;;;;;;5024007;28;19935;-65
2022/10/14 04:43:43;;;;;;;;;;;9.80;99.90;;;;;;5027406;28;19956;-64
2022/10/14 04:46:36;;;;;;;;;;;9.80;99.90;;;;;;5017703;28;20032;-65
2022/10/14 04:49:03;;;;;;;;;;;9.80;99.90;;;;;;5008451;28;20002;-65
2022/10/14 04:51:36;;;;;;;;;;;9.80;99.90;;;;;;5023063;28;19929;-65
2022/10/14 04:54:28;;;;;;;;;;;9.80;99.90;;;;;;5020371;28;19951;-67
2022/10/14 04:56:57;;;;;;;;;;;9.80;99.90;;;;;;5014306;28;20048;-66
2022/10/14 04:59:24;;;;;;;;;;;9.80;99.90;;;;;;5015588;28;19979;-64
2022/10/14 05:02:26;;;;;;;;;;;9.80;99.90;;;;;;5009638;28;19969;-68
2022/10/14 05:04:58;;;;;;;;;;;9.80;99.90;;;;;;5012739;28;19933;-66
2022/10/14 05:07:26;;;;;;;;;;;9.80;99.90;;;;;;5018345;28;20818;-65
2022/10/14 05:10:03;;;;;;;;;;;9.80;99.90;;;;;;5016709;28;19934;-64
2022/10/14 05:12:39;;;;;;;;;;;9.90;99.90;;;;;;5020368;28;19995;-65
2022/10/14 05:15:06;;;;;;;;;;;9.90;99.90;;;;;;5014488;28;20016;-65
2022/10/14 05:17:43;;;;;;;;;;;9.90;99.90;;;;;;5022925;28;19924;-64
2022/10/14 05:20:12;;;;;;;;;;;9.90;99.90;;;;;;5025042;28;19954;-64
2022/10/14 05:22:42;;;;;;;;;;;9.90;99.90;;;;;;5019440;28;19936;-63
2022/10/14 05:25:09;;;;;;;;;;;9.90;99.90;;;;;;5025506;28;20392;-66
2022/10/14 05:27:36;;;;;;;;;;;9.90;99.90;;;;;;5021499;28;19937;-63
2022/10/14 05:30:03;;;;;;;;;;;9.90;99.90;;;;;;5021898;28;19952;-63
2022/10/14 05:32:33;;;;;;;;;;;9.90;99.90;;;;;;5020697;28;20281;-63
2022/10/14 05:35:03;;;;;;;;;;;9.90;99.90;;;;;;5015998;28;20382;-64
2022/10/14 05:37:35;;;;;;;;;;;9.90;99.90;;;;;;5026714;28;19944;-65
2022/10/14 05:40:02;;;;;;;;;;;9.90;99.90;;;;;;5024467;28;20471;-64
2022/10/14 05:42:33;;;;;;;;;;;10.00;99.90;;;;;;5017623;28;19961;-63
2022/10/14 05:45:01;;;;;;;;;;;10.00;99.90;;;;;;5015246;28;19930;-68
2022/10/14 05:47:29;;;;;;;;;;;10.00;99.90;;;;;;5021162;28;19929;-63
2022/10/14 05:50:02;;;;;;;;;;;10.00;99.90;;;;;;5020331;28;20266;-68
2022/10/14 05:52:31;;;;;;;;;;;10.10;99.90;;;;;;5038022;28;19987;-65
2022/10/14 05:55:06;;;;;;;;;;;10.10;99.90;;;;;;5019455;28;20035;-64
2022/10/14 05:57:34;;;;;;;;;;;10.10;99.90;;;;;;5017663;28;20419;-63
2022/10/14 06:00:03;;;;;;;;;;;10.10;99.90;;;;;;5024762;28;19929;-65
2022/10/14 06:02:31;;;;;;;;;;;10.20;99.90;;;;;;5020554;28;19928;-64
2022/10/14 06:04:58;;;;;;;;;;;10.20;99.90;;;;;;5027477;28;20006;-66
2022/10/14 06:07:27;;;;;;;;;;;10.20;99.90;;;;;;5017579;28;20039;-65
2022/10/14 06:09:53;;;;;;;;;;;10.20;99.90;;;;;;5011284;28;19964;-63
2022/10/14 06:12:20;;;;;;;;;;;10.30;99.90;;;;;;5022808;28;20052;-63
2022/10/14 06:14:48;;;;;;;;;;;10.30;99.90;;;;;;5015958;28;20951;-64
2022/10/14 06:17:14;;;;;;;;;;;10.30;99.90;;;;;;5020966;28;20035;-64
2022/10/14 06:19:43;;;;;;;;;;;10.30;99.90;;;;;;5017066;28;19987;-63
2022/10/14 06:22:10;;;;;;;;;;;10.40;99.90;;;;;;5019086;28;20032;-64
2022/10/14 06:24:37;;;;;;;;;;;10.40;99.90;;;;;;5018449;28;19925;-65
2022/10/14 06:27:04;;;;;;;;;;;10.40;99.90;;;;;;5025982;28;19929;-65
2022/10/14 06:29:36;;;;;;;;;;;10.40;99.90;;;;;;5018432;28;19952;-64
2022/10/14 06:32:04;;;;;;;;;;;10.40;99.90;;;;;;5017848;28;19968;-63
2022/10/14 06:34:31;;;;;;;;;;;10.40;99.90;;;;;;5019649;28;20036;-64
2022/10/14 06:36:58;;;;;;;;;;;10.40;99.90;;;;;;5020165;28;19936;-64
2022/10/14 06:39:28;;;;;;;;;;;10.40;99.90;;;;;;5021757;28;20474;-65
2022/10/14 06:41:55;;;;;;;;;;;10.40;99.90;;;;;;5019133;28;20013;-64
2022/10/14 06:44:22;;;;;;;;;;;10.50;99.90;;;;;;5028114;28;20295;-64
2022/10/14 06:46:49;;;;;;;;;;;10.40;99.90;;;;;;5021202;28;19929;-64
2022/10/14 06:49:16;;;;;;;;;;;10.40;99.90;;;;;;5018671;28;19929;-65
2022/10/14 06:51:43;;;;;;;;;;;10.40;99.90;;;;;;5022984;28;19936;-64
2022/10/14 06:54:09;;;;;;;;;;;10.40;99.90;;;;;;5022815;28;20019;-64
2022/10/14 06:56:36;;;;;;;;;;;10.40;99.90;;;;;;5023084;28;19926;-64
2022/10/14 06:59:04;;;;;;;;;;;10.40;99.90;;;;;;5017181;28;19929;-66
2022/10/14 07:01:31;;;;;;;;;;;10.40;99.90;;;;;;5020628;28;19964;-64
2022/10/14 07:03:58;;;;;;;;;;;10.40;99.90;;;;;;5021366;28;20035;-65
2022/10/14 07:06:24;;;;;;;;;;;10.50;99.90;;;;;;5022537;28;19929;-64
2022/10/14 07:08:51;;;;;;;;;;;10.50;99.90;;;;;;5020221;28;19925;-63
2022/10/14 07:11:18;;;;;;;;;;;10.50;99.90;;;;;;5012817;28;20478;-64
2022/10/14 07:13:45;;;;;;;;;;;10.50;99.90;;;;;;5028781;28;19936;-66
2022/10/14 07:16:12;;;;;;;;;;;10.60;99.90;;;;;;5018684;28;19929;-64
2022/10/14 07:18:38;;;;;;;;;;;10.60;99.90;;;;;;5021493;28;19933;-65
2022/10/14 07:21:06;;;;;;;;;;;10.60;99.90;;;;;;5015678;28;20024;-63
2022/10/14 07:23:32;;;;;;;;;;;10.70;99.90;;;;;;5024642;28;20020;-65
2022/10/14 07:25:59;;;;;;;;;;;10.70;99.90;;;;;;5020827;28;19933;-65
2022/10/14 07:28:26;;;;;;;;;;;10.70;99.90;;;;;;5019580;28;20036;-65
2022/10/14 07:30:57;;;;;;;;;;;10.70;99.90;;;;;;5019583;28;19929;-68
2022/10/14 07:33:24;;;;;;;;;;;10.70;99.90;;;;;;5015103;28;19926;-63
2022/10/14 07:35:51;;;;;;;;;;;10.80;99.90;;;;;;5020182;28;19943;-64
2022/10/14 07:38:18;;;;;;;;;;;10.80;99.90;;;;;;5018002;28;19929;-64
2022/10/14 07:40:53;;;;;;;;;;;10.80;99.90;;;;;;5020756;28;19924;-63
2022/10/14 07:43:20;;;;;;;;;;;10.80;99.90;;;;;;5020279;28;20007;-65
2022/10/14 07:45:49;;;;;;;;;;;10.90;99.90;;;;;;5023026;28;19925;-64
2022/10/14 07:48:16;;;;;;;;;;;10.90;99.90;;;;;;5019154;28;19933;-65
2022/10/14 07:50:58;;;;;;;;;;;10.90;99.90;;;;;;5022505;28;19933;-67
2022/10/14 07:53:25;;;;;;;;;;;10.90;99.90;;;;;;5017346;28;19935;-67
2022/10/14 07:55:55;;;;;;;;;;;10.90;99.90;;;;;;5023367;28;19978;-64
2022/10/14 07:58:23;;;;;;;;;;;10.90;99.90;;;;;;5020410;28;20314;-64
2022/10/14 08:00:50;;;;;;;;;;;10.90;99.90;;;;;;5019444;28;19939;-64
2022/10/14 08:03:17;;;;;;;;;;;11.00;99.90;;;;;;5015269;28;20505;-66
2022/10/14 08:05:46;;;;;;;;;;;11.00;99.90;;;;;;5023040;28;20032;-66
2022/10/14 08:08:13;;;;;;;;;;;11.10;99.90;;;;;;5014572;28;19929;-65
2022/10/14 08:10:40;;;;;;;;;;;11.20;99.90;;;;;;5020932;28;19929;-69
2022/10/14 08:13:07;;;;;;;;;;;11.20;99.90;;;;;;5023897;28;19983;-65
2022/10/14 08:15:37;;;;;;;;;;;11.30;99.90;;;;;;5023363;28;19943;-65
2022/10/14 08:18:04;;;;;;;;;;;11.30;99.90;;;;;;5017124;28;19929;-64
2022/10/14 08:20:31;;;;;;;;;;;11.40;99.90;;;;;;5029409;28;19935;-67
2022/10/14 08:22:58;;;;;;;;;;;11.50;99.90;;;;;;5022386;28;19940;-65
2022/10/14 08:25:25;;;;;;;;;;;11.60;99.90;;;;;;5026268;28;19991;-65
2022/10/14 08:27:53;;;;;;;;;;;11.60;99.90;;;;;;5021636;28;19929;-65
2022/10/14 08:30:20;;;;;;;;;;;11.70;99.90;;;;;;5026516;28;19952;-64
2022/10/14 08:32:46;;;;;;;;;;;11.70;99.90;;;;;;5019808;28;20275;-69
2022/10/14 08:35:13;;;;;;;;;;;11.80;99.90;;;;;;5019284;28;19936;-64
2022/10/14 08:37:40;;;;;;;;;;;11.80;99.90;;;;;;5024600;28;20266;-65
2022/10/14 08:40:07;;;;;;;;;;;11.80;99.90;;;;;;5021349;28;20045;-68
2022/10/14 08:42:37;;;;;;;;;;;11.90;99.90;;;;;;5022737;28;19935;-67
2022/10/14 08:45:10;;;;;;;;;;;11.90;99.90;;;;;;5013895;28;19928;-64
2022/10/14 08:47:41;;;;;;;;;;;11.90;99.90;;;;;;5019995;28;20409;-64
2022/10/14 08:50:23;;;;;;;;;;;12.00;99.90;;;;;;5018278;28;19960;-66
2022/10/14 08:52:56;;;;;;;;;;;12.00;99.90;;;;;;5018409;28;19928;-66
2022/10/14 08:55:28;;;;;;;;;;;12.00;99.90;;;;;;5014548;28;19925;-64
2022/10/14 08:57:58;;;;;;;;;;;12.10;99.90;;;;;;5012420;28;19925;-65
2022/10/14 09:00:27;;;;;;;;;;;12.10;99.90;;;;;;5015719;28;19937;-65
2022/10/14 09:02:54;;;;;;;;;;;12.10;99.90;;;;;;5011652;28;20024;-65
2022/10/14 09:05:21;;;;;;;;;;;12.10;99.90;;;;;;5005879;28;19944;-72
2022/10/14 09:07:50;;;;;;;;;;;12.10;99.90;;;;;;5019133;28;20323;-65
2022/10/14 09:10:33;;;;;;;;;;;12.20;99.90;;;;;;5014634;28;19925;-64
2022/10/14 09:13:12;;;;;;;;;;;12.20;99.90;;;;;;5010242;28;19979;-67
2022/10/14 09:15:41;;;;;;;;;;;12.20;99.90;;;;;;5015288;28;20128;-67
2022/10/14 09:18:14;;;;;;;;;;;12.30;99.90;;;;;;5021843;28;19955;-65
2022/10/14 09:20:41;;;;;;;;;;;12.40;99.90;;;;;;5025604;28;20368;-65
2022/10/14 09:23:16;;;;;;;;;;;12.40;99.90;;;;;;5015953;28;20394;-63
2022/10/14 09:25:54;;;;;;;;;;;12.50;99.90;;;;;;5008970;28;19955;-64
2022/10/14 09:28:30;;;;;;;;;;;12.60;99.90;;;;;;5009746;28;19971;-66
2022/10/14 09:30:57;;;;;;;;;;;12.70;99.90;;;;;;5008755;28;19968;-67
2022/10/14 09:33:25;;;;;;;;;;;12.80;99.90;;;;;;5016763;28;19959;-66
2022/10/14 09:35:51;;;;;;;;;;;12.80;99.90;;;;;;5015833;28;19988;-65
2022/10/14 09:38:19;;;;;;;;;;;12.90;99.90;;;;;;5016370;28;19933;-65
2022/10/14 09:40:46;;;;;;;;;;;13.00;99.90;;;;;;5012552;28;20004;-64
2022/10/14 09:43:14;;;;;;;;;;;13.00;99.90;;;;;;5014838;28;20008;-64
2022/10/14 09:45:59;;;;;;;;;;;13.00;99.90;;;;;;5018945;28;19926;-67
2022/10/14 09:48:32;;;;;;;;;;;13.00;99.90;;;;;;5011896;28;20020;-64
2022/10/14 09:51:01;;;;;;;;;;;13.00;99.90;;;;;;5008286;28;20196;-64
2022/10/14 09:53:40;;;;;;;;;;;13.10;99.90;;;;;;5016239;28;19929;-64
2022/10/14 09:56:08;;;;;;;;;;;13.10;99.90;;;;;;5008439;28;19967;-64
2022/10/14 09:58:42;;;;;;;;;;;13.10;99.90;;;;;;5010486;28;19930;-68
2022/10/14 10:01:17;;;;;;;;;;;13.20;99.90;;;;;;5013699;28;19933;-63
2022/10/14 10:03:45;;;;;;;;;;;13.30;99.90;;;;;;5014598;28;19979;-65
2022/10/14 10:06:14;;;;;;;;;;;13.30;99.90;;;;;;5015275;28;19996;-65
2022/10/14 10:08:54;;;;;;;;;;;13.30;99.90;;;;;;5012976;28;19957;-64
2022/10/14 10:11:32;;;;;;;;;;;13.40;99.90;;;;;;5010352;28;20414;-65
2022/10/14 10:14:13;;;;;;;;;;;13.40;99.90;;;;;;5007528;28;20385;-64
2022/10/14 10:16:40;;;;;;;;;;;13.50;99.90;;;;;;5016187;28;19948;-65
2022/10/14 10:19:27;;;;;;;;;;;13.60;99.90;;;;;;5014412;28;19929;-66
2022/10/14 10:21:54;;;;;;;;;;;13.80;99.90;;;;;;5009196;28;19936;-68
2022/10/14 10:24:21;;;;;;;;;;;13.90;99.90;;;;;;5019430;28;20302;-65
2022/10/14 10:26:54;;;;;;;;;;;13.80;99.90;;;;;;5013487;28;19989;-65
2022/10/14 10:29:22;;;;;;;;;;;13.90;99.90;;;;;;5015854;28;19944;-65
2022/10/14 10:31:49;;;;;;;;;;;13.80;99.90;;;;;;5011963;28;19945;-66
2022/10/14 10:34:39;;;;;;;;;;;13.80;99.90;;;;;;5011679;28;19926;-64
2022/10/14 10:37:17;;;;;;;;;;;13.70;99.90;;;;;;5010860;28;20065;-64
2022/10/14 10:40:01;;;;;;;;;;;13.60;99.90;;;;;;5011989;28;19929;-69
2022/10/14 10:42:39;;;;;;;;;;;13.60;99.90;;;;;;5017792;28;19975;-64
2022/10/14 10:45:14;;;;;;;;;;;13.60;99.90;;;;;;5014552;28;19933;-64
2022/10/14 10:47:47;;;;;;;;;;;13.60;99.90;;;;;;5020377;28;20009;-66
2022/10/14 10:50:17;;;;;;;;;;;13.50;99.90;;;;;;5015779;28;19925;-65
2022/10/14 10:52:55;;;;;;;;;;;13.40;99.90;;;;;;5016593;28;19925;-67
2022/10/14 10:55:35;;;;;;;;;;;13.30;99.90;;;;;;5009152;28;19929;-64
2022/10/14 10:58:22;;;;;;;;;;;13.30;99.90;;;;;;4993144;28;20026;-64
2022/10/14 11:01:10;;;;;;;;;;;13.20;99.90;;;;;;5008142;28;19925;-64
2022/10/14 11:03:44;;;;;;;;;;;13.20;99.90;;;;;;5016948;28;19937;-64
2022/10/14 11:12:01;;;;;;;;;;;13.30;99.90;;;;;;5016519;28;20067;-64
2022/10/14 11:12:15;;;;;;;;;;;13.40;99.90;;;;;;5016927;28;19951;-69
2022/10/14 11:14:46;;;;;;;;;;;13.40;99.90;;;;;;5016388;28;19929;-65
2022/10/14 11:17:12;;;;;;;;;;;13.30;99.90;;;;;;5012363;28;19925;-65
2022/10/14 11:19:51;;;;;;;;;;;13.30;99.90;;;;;;5014033;28;19929;-64
2022/10/14 11:22:21;;;;;;;;;;;13.30;99.90;;;;;;5012578;28;20051;-66
2022/10/14 11:24:53;;;;;;;;;;;13.20;99.90;;;;;;5015780;28;19925;-66
2022/10/14 11:27:28;;;;;;;;;;;13.30;99.90;;;;;;5010088;28;19933;-63
2022/10/14 11:30:09;;;;;;;;;;;13.30;99.90;;;;;;5009375;28;20277;-67
2022/10/14 11:32:42;;;;;;;;;;;13.40;99.90;;;;;;5011523;28;19941;-64
2022/10/14 11:35:21;;;;;;;;;;;13.40;99.90;;;;;;5011387;28;19925;-64
2022/10/14 11:37:47;;;;;;;;;;;13.40;99.90;;;;;;5015777;28;20297;-66
2022/10/14 11:40:26;;;;;;;;;;;13.40;99.90;;;;;;5015507;28;19925;-65
2022/10/14 11:43:02;;;;;;;;;;;13.40;99.90;;;;;;5012180;28;19929;-65
2022/10/14 11:45:28;;;;;;;;;;;13.40;99.90;;;;;;5014780;28;20299;-64
2022/10/14 11:48:00;;;;;;;;;;;13.50;99.90;;;;;;5014214;28;19932;-66
2022/10/14 11:50:33;;;;;;;;;;;13.50;99.90;;;;;;5009354;28;19933;-64
2022/10/14 11:53:03;;;;;;;;;;;13.40;99.90;;;;;;5012800;28;19967;-64
2022/10/14 11:55:34;;;;;;;;;;;13.50;99.90;;;;;;5011583;28;19930;-64
2022/10/14 11:58:04;;;;;;;;;;;13.60;99.90;;;;;;5014785;28;20048;-68
2022/10/14 12:00:32;;;;;;;;;;;13.60;99.90;;;;;;5014632;28;19983;-65
2022/10/14 12:03:02;;;;;;;;;;;13.60;99.90;;;;;;5013160;28;20343;-70
2022/10/14 12:05:30;;;;;;;;;;;13.60;99.90;;;;;;5015051;28;20016;-63
2022/10/14 12:08:20;;;;;;;;;;;13.60;99.90;;;;;;5014321;28;20243;-67
2022/10/14 12:10:53;;;;;;;;;;;13.80;99.90;;;;;;5013932;28;20020;-64
2022/10/14 12:13:25;;;;;;;;;;;13.80;99.90;;;;;;5011330;28;19936;-64
2022/10/14 12:15:52;;;;;;;;;;;13.90;99.90;;;;;;5010151;28;20270;-64
2022/10/14 12:18:19;;;;;;;;;;;13.90;99.90;;;;;;5013031;28;19929;-63
2022/10/14 12:21:18;;;;;;;;;;;14.00;99.90;;;;;;5008404;28;19969;-65
2022/10/14 12:23:54;;;;;;;;;;;14.00;99.90;;;;;;5027958;28;19929;-65
2022/10/14 12:26:21;;;;;;;;;;;14.10;99.90;;;;;;5013288;28;20400;-64
2022/10/14 12:28:48;;;;;;;;;;;14.10;99.90;;;;;;5017290;28;20019;-65
2022/10/14 12:31:21;;;;;;;;;;;14.10;99.90;;;;;;5013259;28;20383;-65
2022/10/14 12:34:07;;;;;;;;;;;14.10;99.90;;;;;;5019387;28;19964;-64
2022/10/14 12:36:33;;;;;;;;;;;14.10;99.90;;;;;;5013213;28;19936;-66
2022/10/14 12:39:17;;;;;;;;;;;14.10;99.90;;;;;;5015826;28;19924;-64
2022/10/14 12:41:54;;;;;;;;;;;14.10;99.90;;;;;;5011168;28;19929;-66
2022/10/14 12:44:22;;;;;;;;;;;14.20;99.90;;;;;;5012725;28;19929;-66
2022/10/14 12:46:51;;;;;;;;;;;14.30;99.90;;;;;;5010108;28;20021;-64
2022/10/14 12:49:25;;;;;;;;;;;14.40;99.90;;;;;;5014130;28;19952;-64
2022/10/14 12:51:56;;;;;;;;;;;14.40;99.90;;;;;;5011917;28;20024;-66
2022/10/14 12:54:24;;;;;;;;;;;14.40;99.90;;;;;;5016334;28;19932;-65
2022/10/14 12:56:54;;;;;;;;;;;14.40;99.90;;;;;;5015670;28;20028;-65
2022/10/14 12:59:24;;;;;;;;;;;14.30;99.90;;;;;;5014165;28;20038;-64
2022/10/14 13:01:59;;;;;;;;;;;14.10;99.90;;;;;;5012783;28;19926;-64
2022/10/14 13:04:26;;;;;;;;;;;14.00;99.90;;;;;;5016798;28;20315;-63
2022/10/14 13:07:23;;;;;;;;;;;13.90;99.90;;;;;;5019404;28;19929;-64
2022/10/14 13:10:25;;;;;;;;;;;13.80;99.90;;;;;;4985498;28;19929;-64
2022/10/14 13:12:52;;;;;;;;;;;13.70;99.90;;;;;;5010957;28;19925;-68
2022/10/14 13:15:33;;;;;;;;;;;13.60;99.90;;;;;;5009154;28;19925;-65
2022/10/14 13:18:39;;;;;;;;;;;13.60;99.90;;;;;;5011843;28;19933;-64
2022/10/14 13:21:07;;;;;;;;;;;13.60;99.90;;;;;;5007625;28;19929;-64
2022/10/14 13:23:36;;;;;;;;;;;13.50;99.90;;;;;;5010183;28;20048;-67
2022/10/14 13:26:06;;;;;;;;;;;13.50;99.90;;;;;;5008120;28;20035;-66
2022/10/14 13:28:37;;;;;;;;;;;13.50;99.90;;;;;;5012149;28;20440;-65
2022/10/14 13:31:06;;;;;;;;;;;13.40;99.90;;;;;;5013053;28;19929;-64
2022/10/14 13:33:37;;;;;;;;;;;13.40;99.90;;;;;;5010850;28;20100;-63
2022/10/14 13:36:16;;;;;;;;;;;13.40;99.90;;;;;;5024345;28;19941;-66
2022/10/14 13:38:45;;;;;;;;;;;13.40;99.90;;;;;;5013245;28;19925;-63
2022/10/14 13:41:17;;;;;;;;;;;13.40;99.90;;;;;;5014867;28;20275;-64
2022/10/14 13:43:45;;;;;;;;;;;13.40;99.90;;;;;;5011986;28;19939;-66
2022/10/14 13:46:14;;;;;;;;;;;13.50;99.90;;;;;;5021456;28;19936;-63
2022/10/14 13:48:45;;;;;;;;;;;13.50;99.90;;;;;;5017395;28;19943;-65
2022/10/14 13:51:15;;;;;;;;;;;13.50;99.90;;;;;;5013988;28;19956;-64
2022/10/14 13:54:12;;;;;;;;;;;13.40;99.90;;;;;;5034662;28;20656;-65
2022/10/14 13:56:39;;;;;;;;;;;13.30;99.90;;;;;;5018471;28;19987;-63
2022/10/14 13:59:17;;;;;;;;;;;13.30;99.90;;;;;;5020434;28;19933;-64
2022/10/14 14:02:08;;;;;;;;;;;13.30;99.90;;;;;;5020434;28;19936;-65
2022/10/14 14:04:36;;;;;;;;;;;13.20;99.90;;;;;;5019622;28;20023;-64
2022/10/14 14:07:03;;;;;;;;;;;13.20;99.90;;;;;;5017952;28;20019;-64
2022/10/14 14:09:50;;;;;;;;;;;13.20;99.90;;;;;;5020007;28;20059;-63
2022/10/14 14:12:19;;;;;;;;;;;13.10;99.90;;;;;;5017768;28;19933;-66
2022/10/14 14:14:46;;;;;;;;;;;13.10;99.90;;;;;;5019026;28;19929;-64
2022/10/14 14:17:21;;;;;;;;;;;13.10;99.90;;;;;;5017031;28;20282;-64
2022/10/14 14:19:49;;;;;;;;;;;13.10;99.90;;;;;;5019965;28;20402;-64
2022/10/14 14:22:26;;;;;;;;;;;13.20;99.90;;;;;;5012499;28;20461;-64
2022/10/14 14:25:08;;;;;;;;;;;13.20;99.90;;;;;;5018485;28;20023;-64
2022/10/14 14:27:56;;;;;;;;;;;13.20;99.90;;;;;;5011350;28;19928;-64
2022/10/14 14:30:32;;;;;;;;;;;13.20;99.90;;;;;;5022062;28;19925;-64
2022/10/14 14:33:00;;;;;;;;;;;13.20;99.90;;;;;;5016399;28;20394;-67
2022/10/14 14:35:27;;;;;;;;;;;13.10;99.90;;;;;;5020869;28;20016;-66
2022/10/14 14:37:54;;;;;;;;;;;13.10;99.90;;;;;;5016319;28;19940;-64
2022/10/14 14:40:22;;;;;;;;;;;13.10;99.90;;;;;;5017145;28;20295;-64
2022/10/14 14:43:03;;;;;;;;;;;13.00;99.90;;;;;;5017648;28;20342;-65
2022/10/14 14:45:31;;;;;;;;;;;12.90;99.90;;;;;;5017593;28;20480;-65